sensor_id;sensor_type;location;lat;lon;timestamp;P1;durP1;ratioP1;P2;durP2;ratioP2
7795;SDS011;3942;51.518;6.912;2023-12-04T00:02:35;16.05;;;6.95;;
7795;SDS011;3942;51.518;6.912;2023-12-04T00:07:39;19.48;;;7.50;;
7795;SDS011;3942;51.518;6.912;2023-12-04T00:12:41;14.77;;;7.60;;
7795;SDS011;3942;51.518;6.912;2023-12-04T00:17:44;20.80;;;9.63;;
7795;SDS011;3942;51.518;6.912;2023-12-04T00:22:47;11.82;;;6.13;;
7795;SDS011;3942;51.518;6.912;2023-12-04T00:27:49;11.43;;;5.95;;
7795;SDS011;3942;51.518;6.912;2023-12-04T00:32:51;10.98;;;6.15;;
7795;SDS011;3942;51.518;6.912;2023-12-04T00:37:55;6.00;;;3.40;;
7795;SDS011;3942;51.518;6.912;2023-12-04T00:42:57;13.52;;;5.75;;
7795;SDS011;3942;51.518;6.912;2023-12-04T00:47:59;17.13;;;7.70;;
7795;SDS011;3942;51.518;6.912;2023-12-04T00:53:03;11.27;;;5.93;;
7795;SDS011;3942;51.518;6.912;2023-12-04T00:58:05;23.10;;;8.40;;
7795;SDS011;3942;51.518;6.912;2023-12-04T01:03:07;11.07;;;5.75;;
7795;SDS011;3942;51.518;6.912;2023-12-04T01:08:10;16.95;;;8.77;;
7795;SDS011;3942;51.518;6.912;2023-12-04T01:13:13;16.35;;;6.70;;
7795;SDS011;3942;51.518;6.912;2023-12-04T01:18:15;5.88;;;3.17;;
7795;SDS011;3942;51.518;6.912;2023-12-04T01:23:18;12.55;;;5.45;;
7795;SDS011;3942;51.518;6.912;2023-12-04T01:28:20;14.93;;;7.68;;
7795;SDS011;3942;51.518;6.912;2023-12-04T01:33:22;14.82;;;6.50;;
7795;SDS011;3942;51.518;6.912;2023-12-04T01:38:26;13.02;;;6.22;;
7795;SDS011;3942;51.518;6.912;2023-12-04T01:43:28;5.50;;;2.90;;
7795;SDS011;3942;51.518;6.912;2023-12-04T01:48:30;7.20;;;3.28;;
7795;SDS011;3942;51.518;6.912;2023-12-04T01:53:34;4.05;;;2.40;;
7795;SDS011;3942;51.518;6.912;2023-12-04T01:58:37;12.13;;;5.55;;
7795;SDS011;3942;51.518;6.912;2023-12-04T02:03:39;6.18;;;2.53;;
7795;SDS011;3942;51.518;6.912;2023-12-04T02:08:43;14.07;;;6.35;;
7795;SDS011;3942;51.518;6.912;2023-12-04T02:13:46;10.45;;;4.70;;
7795;SDS011;3942;51.518;6.912;2023-12-04T02:18:49;8.40;;;4.55;;
7795;SDS011;3942;51.518;6.912;2023-12-04T02:23:52;11.55;;;5.53;;
7795;SDS011;3942;51.518;6.912;2023-12-04T02:28:55;9.07;;;5.70;;
7795;SDS011;3942;51.518;6.912;2023-12-04T02:34:00;4.45;;;2.70;;
7795;SDS011;3942;51.518;6.912;2023-12-04T02:39:07;7.32;;;3.90;;
7795;SDS011;3942;51.518;6.912;2023-12-04T02:44:09;9.77;;;5.15;;
7795;SDS011;3942;51.518;6.912;2023-12-04T02:49:11;7.60;;;4.07;;
7795;SDS011;3942;51.518;6.912;2023-12-04T02:54:14;4.75;;;2.95;;
7795;SDS011;3942;51.518;6.912;2023-12-04T02:59:16;6.22;;;2.72;;
7795;SDS011;3942;51.518;6.912;2023-12-04T03:04:19;8.88;;;4.68;;
7795;SDS011;3942;51.518;6.912;2023-12-04T03:09:22;9.55;;;4.20;;
7795;SDS011;3942;51.518;6.912;2023-12-04T03:14:24;13.55;;;5.13;;
7795;SDS011;3942;51.518;6.912;2023-12-04T03:19:26;10.45;;;5.40;;
7795;SDS011;3942;51.518;6.912;2023-12-04T03:24:29;9.18;;;4.47;;
7795;SDS011;3942;51.518;6.912;2023-12-04T03:29:31;8.75;;;3.97;;
7795;SDS011;3942;51.518;6.912;2023-12-04T03:34:33;9.13;;;4.75;;
7795;SDS011;3942;51.518;6.912;2023-12-04T03:39:37;8.38;;;3.78;;
7795;SDS011;3942;51.518;6.912;2023-12-04T03:44:39;3.50;;;2.63;;
7795;SDS011;3942;51.518;6.912;2023-12-04T03:49:41;6.72;;;3.63;;
7795;SDS011;3942;51.518;6.912;2023-12-04T03:54:44;3.53;;;2.17;;
7795;SDS011;3942;51.518;6.912;2023-12-04T03:59:46;7.78;;;4.22;;
7795;SDS011;3942;51.518;6.912;2023-12-04T04:04:48;8.25;;;4.50;;
7795;SDS011;3942;51.518;6.912;2023-12-04T04:09:51;8.00;;;4.00;;
7795;SDS011;3942;51.518;6.912;2023-12-04T04:14:54;5.28;;;2.75;;
7795;SDS011;3942;51.518;6.912;2023-12-04T04:19:56;6.70;;;2.72;;
7795;SDS011;3942;51.518;6.912;2023-12-04T04:24:59;5.53;;;3.33;;
7795;SDS011;3942;51.518;6.912;2023-12-04T04:30:01;5.82;;;3.30;;
7795;SDS011;3942;51.518;6.912;2023-12-04T04:35:04;5.53;;;2.92;;
7795;SDS011;3942;51.518;6.912;2023-12-04T04:40:08;8.52;;;3.97;;
7795;SDS011;3942;51.518;6.912;2023-12-04T04:45:10;2.72;;;1.27;;
7795;SDS011;3942;51.518;6.912;2023-12-04T04:50:12;6.55;;;2.33;;
7795;SDS011;3942;51.518;6.912;2023-12-04T04:55:16;4.85;;;2.83;;
7795;SDS011;3942;51.518;6.912;2023-12-04T05:00:18;6.30;;;3.13;;
7795;SDS011;3942;51.518;6.912;2023-12-04T05:05:20;5.15;;;2.17;;
7795;SDS011;3942;51.518;6.912;2023-12-04T05:10:23;2.40;;;1.73;;
7795;SDS011;3942;51.518;6.912;2023-12-04T05:15:25;4.63;;;1.77;;
7795;SDS011;3942;51.518;6.912;2023-12-04T05:20:27;5.93;;;2.58;;
7795;SDS011;3942;51.518;6.912;2023-12-04T05:25:31;4.70;;;2.88;;
7795;SDS011;3942;51.518;6.912;2023-12-04T05:30:33;3.08;;;2.35;;
7795;SDS011;3942;51.518;6.912;2023-12-04T05:35:35;3.08;;;1.77;;
7795;SDS011;3942;51.518;6.912;2023-12-04T05:40:39;3.92;;;2.28;;
7795;SDS011;3942;51.518;6.912;2023-12-04T05:45:41;5.43;;;2.45;;
7795;SDS011;3942;51.518;6.912;2023-12-04T05:50:43;2.78;;;1.55;;
7795;SDS011;3942;51.518;6.912;2023-12-04T05:55:46;4.88;;;3.00;;
7795;SDS011;3942;51.518;6.912;2023-12-04T06:00:48;3.92;;;2.30;;
7795;SDS011;3942;51.518;6.912;2023-12-04T06:05:51;8.13;;;3.80;;
7795;SDS011;3942;51.518;6.912;2023-12-04T06:10:54;5.50;;;2.40;;
7795;SDS011;3942;51.518;6.912;2023-12-04T06:15:56;3.50;;;2.65;;
7795;SDS011;3942;51.518;6.912;2023-12-04T06:20:58;7.38;;;3.83;;
7795;SDS011;3942;51.518;6.912;2023-12-04T06:26:02;7.18;;;3.53;;
7795;SDS011;3942;51.518;6.912;2023-12-04T06:31:05;6.00;;;3.75;;
7795;SDS011;3942;51.518;6.912;2023-12-04T06:36:08;8.10;;;4.05;;
7795;SDS011;3942;51.518;6.912;2023-12-04T06:41:13;5.72;;;3.28;;
7795;SDS011;3942;51.518;6.912;2023-12-04T06:46:15;9.38;;;4.47;;
7795;SDS011;3942;51.518;6.912;2023-12-04T06:51:18;2.88;;;1.90;;
7795;SDS011;3942;51.518;6.912;2023-12-04T06:56:21;6.72;;;2.80;;
7795;SDS011;3942;51.518;6.912;2023-12-04T07:01:23;2.90;;;1.17;;
7795;SDS011;3942;51.518;6.912;2023-12-04T07:06:25;5.82;;;3.25;;
7795;SDS011;3942;51.518;6.912;2023-12-04T07:11:29;6.25;;;3.70;;
7795;SDS011;3942;51.518;6.912;2023-12-04T07:16:38;6.30;;;3.53;;
7795;SDS011;3942;51.518;6.912;2023-12-04T07:21:40;7.35;;;3.80;;
7795;SDS011;3942;51.518;6.912;2023-12-04T07:26:43;9.05;;;3.83;;
7795;SDS011;3942;51.518;6.912;2023-12-04T07:31:46;16.63;;;7.40;;
7795;SDS011;3942;51.518;6.912;2023-12-04T07:36:48;14.70;;;4.75;;
7795;SDS011;3942;51.518;6.912;2023-12-04T07:41:52;11.07;;;4.63;;
7795;SDS011;3942;51.518;6.912;2023-12-04T07:46:54;12.57;;;5.07;;
7795;SDS011;3942;51.518;6.912;2023-12-04T07:51:57;9.38;;;4.80;;
7795;SDS011;3942;51.518;6.912;2023-12-04T07:57:00;9.15;;;4.70;;
7795;SDS011;3942;51.518;6.912;2023-12-04T08:02:02;8.23;;;4.55;;
7795;SDS011;3942;51.518;6.912;2023-12-04T08:07:05;11.32;;;4.72;;
7795;SDS011;3942;51.518;6.912;2023-12-04T08:12:09;8.85;;;4.70;;
7795;SDS011;3942;51.518;6.912;2023-12-04T08:17:11;8.68;;;3.38;;
7795;SDS011;3942;51.518;6.912;2023-12-04T08:22:13;10.60;;;4.97;;
7795;SDS011;3942;51.518;6.912;2023-12-04T08:27:16;11.02;;;5.00;;
7795;SDS011;3942;51.518;6.912;2023-12-04T08:32:18;1.95;;;1.45;;
7795;SDS011;3942;51.518;6.912;2023-12-04T08:37:21;5.65;;;2.13;;
7795;SDS011;3942;51.518;6.912;2023-12-04T08:42:24;7.20;;;3.88;;
7795;SDS011;3942;51.518;6.912;2023-12-04T08:47:27;6.70;;;3.95;;
7795;SDS011;3942;51.518;6.912;2023-12-04T08:52:29;4.85;;;2.72;;
7795;SDS011;3942;51.518;6.912;2023-12-04T08:57:32;5.53;;;3.03;;
7795;SDS011;3942;51.518;6.912;2023-12-04T09:02:34;3.28;;;1.80;;
7795;SDS011;3942;51.518;6.912;2023-12-04T09:07:37;4.40;;;2.30;;
7795;SDS011;3942;51.518;6.912;2023-12-04T09:12:40;5.80;;;3.05;;
7795;SDS011;3942;51.518;6.912;2023-12-04T09:17:42;4.70;;;2.35;;
7795;SDS011;3942;51.518;6.912;2023-12-04T09:22:44;2.20;;;1.75;;
7795;SDS011;3942;51.518;6.912;2023-12-04T09:27:48;4.70;;;2.40;;
7795;SDS011;3942;51.518;6.912;2023-12-04T09:32:50;6.28;;;3.05;;
7795;SDS011;3942;51.518;6.912;2023-12-04T09:37:52;6.55;;;1.70;;
7795;SDS011;3942;51.518;6.912;2023-12-04T09:42:55;4.47;;;2.35;;
7795;SDS011;3942;51.518;6.912;2023-12-04T09:47:58;8.25;;;3.70;;
7795;SDS011;3942;51.518;6.912;2023-12-04T09:53:00;7.55;;;3.80;;
7795;SDS011;3942;51.518;6.912;2023-12-04T09:58:04;6.28;;;2.90;;
7795;SDS011;3942;51.518;6.912;2023-12-04T10:03:07;6.00;;;2.85;;
7795;SDS011;3942;51.518;6.912;2023-12-04T10:08:09;5.55;;;3.03;;
7795;SDS011;3942;51.518;6.912;2023-12-04T10:13:12;8.60;;;3.45;;
7795;SDS011;3942;51.518;6.912;2023-12-04T10:18:24;4.13;;;2.40;;
7795;SDS011;3942;51.518;6.912;2023-12-04T10:23:35;7.25;;;3.33;;
7795;SDS011;3942;51.518;6.912;2023-12-04T10:28:40;4.32;;;2.25;;
7795;SDS011;3942;51.518;6.912;2023-12-04T10:34:00;12.48;;;3.47;;
7795;SDS011;3942;51.518;6.912;2023-12-04T10:39:04;2.40;;;1.77;;
7795;SDS011;3942;51.518;6.912;2023-12-04T10:44:08;3.70;;;2.50;;
7795;SDS011;3942;51.518;6.912;2023-12-04T10:49:09;20.25;;;3.70;;
7795;SDS011;3942;51.518;6.912;2023-12-04T10:54:12;5.72;;;3.22;;
7795;SDS011;3942;51.518;6.912;2023-12-04T10:59:16;7.20;;;3.97;;
7795;SDS011;3942;51.518;6.912;2023-12-04T11:04:31;2.92;;;1.70;;
7795;SDS011;3942;51.518;6.912;2023-12-04T11:09:36;9.43;;;3.08;;
7795;SDS011;3942;51.518;6.912;2023-12-04T11:14:42;5.75;;;3.33;;
7795;SDS011;3942;51.518;6.912;2023-12-04T11:19:47;3.20;;;2.40;;
7795;SDS011;3942;51.518;6.912;2023-12-04T11:24:52;5.65;;;3.25;;
7795;SDS011;3942;51.518;6.912;2023-12-04T11:29:55;1.80;;;1.52;;
7795;SDS011;3942;51.518;6.912;2023-12-04T11:34:59;4.45;;;2.95;;
7795;SDS011;3942;51.518;6.912;2023-12-04T11:40:03;7.45;;;3.20;;
7795;SDS011;3942;51.518;6.912;2023-12-04T11:45:08;5.93;;;2.80;;
7795;SDS011;3942;51.518;6.912;2023-12-04T11:50:10;4.80;;;2.78;;
7795;SDS011;3942;51.518;6.912;2023-12-04T11:55:15;8.57;;;3.42;;
7795;SDS011;3942;51.518;6.912;2023-12-04T12:00:22;9.15;;;5.50;;
7795;SDS011;3942;51.518;6.912;2023-12-04T12:05:25;6.43;;;3.35;;
7795;SDS011;3942;51.518;6.912;2023-12-04T12:10:28;8.35;;;4.68;;
7795;SDS011;3942;51.518;6.912;2023-12-04T12:15:32;11.30;;;4.85;;
7795;SDS011;3942;51.518;6.912;2023-12-04T12:20:36;9.68;;;4.43;;
7795;SDS011;3942;51.518;6.912;2023-12-04T12:25:38;8.90;;;4.43;;
7795;SDS011;3942;51.518;6.912;2023-12-04T12:30:42;5.90;;;4.10;;
7795;SDS011;3942;51.518;6.912;2023-12-04T12:35:45;12.95;;;4.60;;
7795;SDS011;3942;51.518;6.912;2023-12-04T12:40:47;6.88;;;3.97;;
7795;SDS011;3942;51.518;6.912;2023-12-04T12:45:51;9.02;;;4.70;;
7795;SDS011;3942;51.518;6.912;2023-12-04T12:50:54;9.77;;;4.53;;
7795;SDS011;3942;51.518;6.912;2023-12-04T12:55:56;3.63;;;2.08;;
7795;SDS011;3942;51.518;6.912;2023-12-04T13:00:59;15.88;;;5.50;;
7795;SDS011;3942;51.518;6.912;2023-12-04T13:06:02;13.48;;;6.25;;
7795;SDS011;3942;51.518;6.912;2023-12-04T13:11:04;9.80;;;4.82;;
7795;SDS011;3942;51.518;6.912;2023-12-04T13:16:08;12.18;;;5.38;;
7795;SDS011;3942;51.518;6.912;2023-12-04T13:21:11;12.45;;;5.93;;
7795;SDS011;3942;51.518;6.912;2023-12-04T13:26:13;12.43;;;5.10;;
7795;SDS011;3942;51.518;6.912;2023-12-04T13:31:17;9.35;;;4.45;;
7795;SDS011;3942;51.518;6.912;2023-12-04T13:36:20;9.07;;;4.53;;
7795;SDS011;3942;51.518;6.912;2023-12-04T13:41:23;7.70;;;4.75;;
7795;SDS011;3942;51.518;6.912;2023-12-04T13:46:45;9.00;;;3.10;;
7795;SDS011;3942;51.518;6.912;2023-12-04T13:51:49;8.98;;;4.53;;
7795;SDS011;3942;51.518;6.912;2023-12-04T13:56:53;8.00;;;4.13;;
7795;SDS011;3942;51.518;6.912;2023-12-04T14:01:57;9.77;;;3.78;;
7795;SDS011;3942;51.518;6.912;2023-12-04T14:07:00;5.38;;;3.25;;
7795;SDS011;3942;51.518;6.912;2023-12-04T14:12:03;5.97;;;3.33;;
7795;SDS011;3942;51.518;6.912;2023-12-04T14:17:07;9.07;;;4.65;;
7795;SDS011;3942;51.518;6.912;2023-12-04T14:22:09;7.18;;;4.80;;
7795;SDS011;3942;51.518;6.912;2023-12-04T14:27:11;9.55;;;5.18;;
7795;SDS011;3942;51.518;6.912;2023-12-04T14:32:15;4.85;;;2.88;;
7795;SDS011;3942;51.518;6.912;2023-12-04T14:37:19;8.50;;;3.90;;
7795;SDS011;3942;51.518;6.912;2023-12-04T14:42:21;13.52;;;3.90;;
7795;SDS011;3942;51.518;6.912;2023-12-04T14:47:25;5.95;;;2.95;;
7795;SDS011;3942;51.518;6.912;2023-12-04T14:52:28;4.95;;;2.63;;
7795;SDS011;3942;51.518;6.912;2023-12-04T14:57:33;8.82;;;5.05;;
7795;SDS011;3942;51.518;6.912;2023-12-04T15:02:56;6.55;;;2.90;;
7795;SDS011;3942;51.518;6.912;2023-12-04T15:08:12;8.63;;;3.75;;
7795;SDS011;3942;51.518;6.912;2023-12-04T15:13:47;6.10;;;3.50;;
7795;SDS011;3942;51.518;6.912;2023-12-04T15:18:57;3.97;;;2.25;;
7795;SDS011;3942;51.518;6.912;2023-12-04T15:24:15;6.18;;;4.00;;
7795;SDS011;3942;51.518;6.912;2023-12-04T15:29:17;5.38;;;3.35;;
7795;SDS011;3942;51.518;6.912;2023-12-04T15:34:21;4.03;;;1.88;;
7795;SDS011;3942;51.518;6.912;2023-12-04T15:39:23;5.00;;;2.83;;
7795;SDS011;3942;51.518;6.912;2023-12-04T15:44:26;8.68;;;3.97;;
7795;SDS011;3942;51.518;6.912;2023-12-04T15:49:29;6.15;;;3.58;;
7795;SDS011;3942;51.518;6.912;2023-12-04T15:54:31;7.82;;;4.25;;
7795;SDS011;3942;51.518;6.912;2023-12-04T15:59:33;4.38;;;2.30;;
7795;SDS011;3942;51.518;6.912;2023-12-04T16:04:37;9.85;;;3.45;;
7795;SDS011;3942;51.518;6.912;2023-12-04T16:09:38;6.18;;;3.00;;
7795;SDS011;3942;51.518;6.912;2023-12-04T16:14:41;7.45;;;4.50;;
7795;SDS011;3942;51.518;6.912;2023-12-04T16:19:44;7.82;;;4.05;;
7795;SDS011;3942;51.518;6.912;2023-12-04T16:24:46;2.92;;;1.75;;
7795;SDS011;3942;51.518;6.912;2023-12-04T16:29:48;4.57;;;2.53;;
7795;SDS011;3942;51.518;6.912;2023-12-04T16:34:51;7.30;;;3.97;;
7795;SDS011;3942;51.518;6.912;2023-12-04T16:39:53;6.07;;;3.22;;
7795;SDS011;3942;51.518;6.912;2023-12-04T16:44:55;9.85;;;4.55;;
7795;SDS011;3942;51.518;6.912;2023-12-04T16:49:59;9.57;;;4.15;;
7795;SDS011;3942;51.518;6.912;2023-12-04T16:55:01;5.10;;;3.03;;
7795;SDS011;3942;51.518;6.912;2023-12-04T17:00:03;3.50;;;2.47;;
7795;SDS011;3942;51.518;6.912;2023-12-04T17:05:10;7.63;;;4.45;;
7795;SDS011;3942;51.518;6.912;2023-12-04T17:10:12;9.57;;;5.20;;
7795;SDS011;3942;51.518;6.912;2023-12-04T17:15:15;10.35;;;5.57;;
7795;SDS011;3942;51.518;6.912;2023-12-04T17:20:19;4.68;;;3.17;;
7795;SDS011;3942;51.518;6.912;2023-12-04T17:25:21;5.43;;;2.42;;
7795;SDS011;3942;51.518;6.912;2023-12-04T17:30:25;5.15;;;3.13;;
7795;SDS011;3942;51.518;6.912;2023-12-04T17:35:28;12.85;;;5.35;;
7795;SDS011;3942;51.518;6.912;2023-12-04T17:40:30;5.65;;;3.15;;
7795;SDS011;3942;51.518;6.912;2023-12-04T17:45:32;3.30;;;1.88;;
7795;SDS011;3942;51.518;6.912;2023-12-04T17:50:35;11.23;;;6.55;;
7795;SDS011;3942;51.518;6.912;2023-12-04T17:55:37;9.80;;;4.30;;
7795;SDS011;3942;51.518;6.912;2023-12-04T18:00:39;9.73;;;5.07;;
7795;SDS011;3942;51.518;6.912;2023-12-04T18:05:43;5.68;;;4.30;;
7795;SDS011;3942;51.518;6.912;2023-12-04T18:10:44;13.25;;;6.65;;
7795;SDS011;3942;51.518;6.912;2023-12-04T18:15:47;3.53;;;2.60;;
7795;SDS011;3942;51.518;6.912;2023-12-04T18:20:50;10.50;;;6.47;;
7795;SDS011;3942;51.518;6.912;2023-12-04T18:25:52;10.93;;;4.95;;
7795;SDS011;3942;51.518;6.912;2023-12-04T18:30:55;7.30;;;4.25;;
7795;SDS011;3942;51.518;6.912;2023-12-04T18:35:59;1.80;;;1.65;;
7795;SDS011;3942;51.518;6.912;2023-12-04T18:41:02;9.90;;;5.70;;
7795;SDS011;3942;51.518;6.912;2023-12-04T18:46:06;5.75;;;3.38;;
7795;SDS011;3942;51.518;6.912;2023-12-04T18:51:11;5.40;;;2.50;;
7795;SDS011;3942;51.518;6.912;2023-12-04T18:56:14;9.18;;;4.53;;
7795;SDS011;3942;51.518;6.912;2023-12-04T19:01:17;10.75;;;4.63;;
7795;SDS011;3942;51.518;6.912;2023-12-04T19:06:20;9.70;;;6.35;;
7795;SDS011;3942;51.518;6.912;2023-12-04T19:11:22;12.07;;;7.38;;
7795;SDS011;3942;51.518;6.912;2023-12-04T19:16:25;15.23;;;7.57;;
7795;SDS011;3942;51.518;6.912;2023-12-04T19:21:28;11.80;;;7.50;;
7795;SDS011;3942;51.518;6.912;2023-12-04T19:26:30;10.40;;;5.30;;
7795;SDS011;3942;51.518;6.912;2023-12-04T19:31:33;12.25;;;8.07;;
7795;SDS011;3942;51.518;6.912;2023-12-04T19:36:36;16.13;;;8.43;;
7795;SDS011;3942;51.518;6.912;2023-12-04T19:41:38;10.68;;;6.40;;
7795;SDS011;3942;51.518;6.912;2023-12-04T19:46:40;15.98;;;8.60;;
7795;SDS011;3942;51.518;6.912;2023-12-04T19:51:44;15.13;;;7.25;;
7795;SDS011;3942;51.518;6.912;2023-12-04T19:56:45;14.70;;;8.65;;
7795;SDS011;3942;51.518;6.912;2023-12-04T20:01:49;8.73;;;4.75;;
7795;SDS011;3942;51.518;6.912;2023-12-04T20:06:52;13.38;;;7.60;;
7795;SDS011;3942;51.518;6.912;2023-12-04T20:11:55;6.70;;;4.18;;
7795;SDS011;3942;51.518;6.912;2023-12-04T20:16:57;15.05;;;8.43;;
7795;SDS011;3942;51.518;6.912;2023-12-04T20:22:00;14.63;;;6.80;;
7795;SDS011;3942;51.518;6.912;2023-12-04T20:27:03;18.80;;;9.20;;
7795;SDS011;3942;51.518;6.912;2023-12-04T20:32:05;13.15;;;8.35;;
7795;SDS011;3942;51.518;6.912;2023-12-04T20:37:09;15.32;;;8.65;;
7795;SDS011;3942;51.518;6.912;2023-12-04T20:42:11;17.15;;;7.45;;
7795;SDS011;3942;51.518;6.912;2023-12-04T20:47:13;19.55;;;6.95;;
7795;SDS011;3942;51.518;6.912;2023-12-04T20:52:16;12.68;;;6.93;;
7795;SDS011;3942;51.518;6.912;2023-12-04T20:57:18;15.50;;;8.85;;
7795;SDS011;3942;51.518;6.912;2023-12-04T21:02:20;14.77;;;9.43;;
7795;SDS011;3942;51.518;6.912;2023-12-04T21:07:24;9.52;;;5.43;;
7795;SDS011;3942;51.518;6.912;2023-12-04T21:12:26;15.65;;;9.15;;
7795;SDS011;3942;51.518;6.912;2023-12-04T21:17:28;15.88;;;8.15;;
7795;SDS011;3942;51.518;6.912;2023-12-04T21:22:31;5.60;;;3.40;;
7795;SDS011;3942;51.518;6.912;2023-12-04T21:27:33;16.58;;;9.68;;
7795;SDS011;3942;51.518;6.912;2023-12-04T21:32:36;13.32;;;7.78;;
7795;SDS011;3942;51.518;6.912;2023-12-04T21:37:39;14.70;;;8.18;;
7795;SDS011;3942;51.518;6.912;2023-12-04T21:42:41;15.20;;;8.68;;
7795;SDS011;3942;51.518;6.912;2023-12-04T21:47:43;18.05;;;10.02;;
7795;SDS011;3942;51.518;6.912;2023-12-04T21:52:47;20.60;;;9.05;;
7795;SDS011;3942;51.518;6.912;2023-12-04T21:57:49;16.10;;;9.05;;
7795;SDS011;3942;51.518;6.912;2023-12-04T22:02:51;16.45;;;9.82;;
7795;SDS011;3942;51.518;6.912;2023-12-04T22:07:54;15.75;;;9.10;;
7795;SDS011;3942;51.518;6.912;2023-12-04T22:12:57;16.58;;;9.63;;
7795;SDS011;3942;51.518;6.912;2023-12-04T22:17:59;15.70;;;9.90;;
7795;SDS011;3942;51.518;6.912;2023-12-04T22:23:02;10.88;;;5.28;;
7795;SDS011;3942;51.518;6.912;2023-12-04T22:28:05;15.23;;;8.98;;
7795;SDS011;3942;51.518;6.912;2023-12-04T22:33:07;15.57;;;8.95;;
7795;SDS011;3942;51.518;6.912;2023-12-04T22:38:10;14.82;;;8.32;;
7795;SDS011;3942;51.518;6.912;2023-12-04T22:43:12;14.15;;;9.20;;
7795;SDS011;3942;51.518;6.912;2023-12-04T22:48:14;16.05;;;9.18;;
7795;SDS011;3942;51.518;6.912;2023-12-04T22:53:18;13.02;;;8.70;;
7795;SDS011;3942;51.518;6.912;2023-12-04T22:58:20;12.85;;;7.50;;
7795;SDS011;3942;51.518;6.912;2023-12-04T23:03:22;13.75;;;6.47;;
7795;SDS011;3942;51.518;6.912;2023-12-04T23:08:26;15.75;;;8.27;;
7795;SDS011;3942;51.518;6.912;2023-12-04T23:13:28;15.32;;;9.30;;
7795;SDS011;3942;51.518;6.912;2023-12-04T23:18:30;11.95;;;7.93;;
7795;SDS011;3942;51.518;6.912;2023-12-04T23:23:33;15.25;;;8.15;;
7795;SDS011;3942;51.518;6.912;2023-12-04T23:28:35;16.35;;;9.02;;
7795;SDS011;3942;51.518;6.912;2023-12-04T23:33:37;16.38;;;9.05;;
7795;SDS011;3942;51.518;6.912;2023-12-04T23:38:41;16.42;;;8.98;;
7795;SDS011;3942;51.518;6.912;2023-12-04T23:43:43;12.20;;;7.07;;
7795;SDS011;3942;51.518;6.912;2023-12-04T23:48:45;18.45;;;9.15;;
7795;SDS011;3942;51.518;6.912;2023-12-04T23:53:48;18.15;;;10.45;;
7795;SDS011;3942;51.518;6.912;2023-12-04T23:58:50;15.25;;;9.07;;
